Rio, Wisconsin
Current Conditions -  °F | °C
As of 3:15 PM on Saturday 22 Nov 2014 (Local Time) from KMSN Reporting Station
Haze Haze  
Wind Chill: 42°   Ceiling: 700
Heat Index: 44°   Visibility: 3mi
Dew Point: 42°   Wind: 5mph
Humidity: 93%   Direction: 220°SW
Pressure: 29.79"   Gusts: NA
Location:  43.45°N, 89.24°W
Report Text: KMSN 222115Z 22004KT 3SM BR OVC007 07/06 A2979 RMK AO2 T00670056
Loading
Personal Weather Stations






























Interactive Weather Map New forecast layout! Learn more

10-Day Weather Forecast

Advertisements
Track Severe Weather on mobile